MDT,Max TemperatureF,Mean TemperatureF,Min TemperatureF,Max Dew PointF,MeanDew PointF,Min DewpointF,Max Humidity, Mean Humidity, Min Humidity, Max Sea Level PressureIn, Mean Sea Level PressureIn, Min Sea Level PressureIn, Max VisibilityMiles, Mean VisibilityMiles, Min VisibilityMiles, Max Wind SpeedMPH, Mean Wind SpeedMPH, Max Gust SpeedMPH,PrecipitationIn, CloudCover, Events, WindDirDegrees
2013-9-1,77,65,53,36,34,32,51,34,19,30.34,30.31,30.28,10,10,10,20,12,22,0.00,1,,8
2013-9-2,75,67,59,52,43,30,72,46,29,30.31,30.27,30.23,10,10,7,18,7,31,0.02,4,Rain-Thunderstorm,241
2013-9-3,77,66,55,50,44,36,82,49,22,30.38,30.33,30.27,10,10,10,17,7,23,0.00,2,Thunderstorm,263
2013-9-4,77,66,55,46,41,36,72,42,22,30.45,30.41,30.38,10,10,10,15,7,23,0.00,0,,261
2013-9-5,78,68,59,43,38,36,51,35,21,30.43,30.39,30.34,10,10,10,18,8,25,0.00,1,,246
2013-9-6,75,68,60,43,39,34,48,36,23,30.42,30.36,30.29,10,10,10,15,6,25,0.00,2,Thunderstorm,228
2013-9-7,77,65,53,46,41,34,67,47,22,30.36,30.32,30.25,10,10,10,25,7,38,0.02,3,Rain-Thunderstorm,295
2013-9-8,64,57,50,50,44,37,88,65,45,30.29,30.20,30.13,10,10,7,18,8,23,0.02,4,Rain,250
2013-9-9,68,58,48,45,38,30,82,54,24,30.21,30.13,30.11,10,10,10,18,8,24,0.00,2,,340
2013-9-10,55,50,46,45,42,39,87,72,62,30.33,30.27,30.21,10,10,10,18,13,24,0.00,5,,19
2013-9-11,53,50,46,48,44,41,94,80,62,30.40,30.35,30.30,10,9,0,30,18,39,0.32,8,Fog-Rain,358
2013-9-12,53,50,46,48,46,45,100,89,82,30.40,30.36,30.28,10,9,0,21,14,25,0.17,8,Fog-Rain,2
2013-9-13,60,53,46,50,45,39,100,78,48,30.28,30.16,30.08,10,8,0,10,4,16,0.00,8,Fog-Rain-Thunderstorm,266
2013-9-14,55,50,46,50,46,43,100,86,67,30.20,30.11,30.05,10,8,0,16,6,23,0.32,8,Fog-Rain-Thunderstorm,1
2013-9-15,55,50,46,50,48,45,100,94,77,30.29,30.25,30.19,10,8,0,17,9,23,0.21,8,Fog-Rain-Thunderstorm,43
2013-9-16,66,56,46,50,45,37,100,70,35,30.25,30.21,30.18,10,8,0,16,6,23,0.00,8,Fog-Thunderstorm,243
2013-9-17,68,60,51,50,42,34,88,61,32,30.18,30.05,29.88,10,10,10,30,12,43,0.00,8,Thunderstorm,217
2013-9-18,53,48,42,45,34,16,93,59,26,30.09,29.97,29.89,10,10,7,22,9,32,0.01,8,Rain,252
2013-9-19,53,42,32,28,22,5,69,46,26,30.24,30.17,30.08,10,10,10,13,5,21,0.00,1,,307
2013-9-20,62,50,39,27,15,5,57,29,10,30.23,30.17,30.10,10,10,10,20,9,28,0.00,0,,246
2013-9-21,66,57,48,30,21,7,43,27,15,30.10,30.02,29.88,10,10,10,21,10,31,0.00,0,,226
2013-9-22,57,50,42,43,37,30,100,65,38,29.89,29.82,29.76,10,10,2,20,13,30,0.07,2,Rain-Thunderstorm,235
2013-9-23,51,45,39,36,28,21,76,50,33,30.13,29.96,29.76,10,10,10,24,8,31,0.00,2,,260
2013-9-24,62,48,33,32,26,19,87,45,19,30.15,30.04,29.89,10,10,10,24,13,37,0.00,1,,231
2013-9-25,53,42,32,37,31,23,100,67,30,29.88,29.73,29.62,10,9,1,22,9,37,0.07,6,Rain-Snow-Thunderstorm,230
2013-9-26,37,34,30,36,33,28,100,98,81,29.85,29.78,29.74,10,4,0,16,7,21,0.05,8,Rain-Snow,303
2013-9-27,32,30,28,32,28,19,100,93,69,29.98,29.91,29.83,10,4,0,22,12,29,0.07,7,Fog-Rain-Snow,328
2013-9-28,39,34,30,32,28,18,87,80,60,30.17,30.12,30.00,10,9,1,32,14,40,0.13,1,Rain-Snow,252
2013-9-29,53,40,28,32,29,23,100,64,38,30.12,29.99,29.84,10,10,10,34,16,52,0.00,1,,235
2013-9-30,55,46,37,34,31,27,81,53,33,30.02,29.91,29.83,10,10,10,36,19,50,0.00,2,,242